createdAt,value
2023-02-12T00:01:56.340Z,3.60
2023-02-12T00:04:43.282Z,3.90
2023-02-12T00:07:31.280Z,3.87
2023-02-12T00:10:19.675Z,3.47
2023-02-12T00:13:06.546Z,3.47
2023-02-12T00:15:54.023Z,3.20
2023-02-12T00:18:40.805Z,3.33
2023-02-12T00:21:27.673Z,3.70
2023-02-12T00:24:14.407Z,3.67
2023-02-12T00:27:02.402Z,3.03
2023-02-12T00:29:49.075Z,3.40
2023-02-12T00:32:37.425Z,3.60
2023-02-12T00:35:24.300Z,3.93
2023-02-12T00:38:11.096Z,3.60
2023-02-12T00:40:57.982Z,3.60
2023-02-12T00:43:46.762Z,3.43
2023-02-12T00:46:33.300Z,3.30
2023-02-12T00:49:20.471Z,3.30
2023-02-12T00:52:07.473Z,3.40
2023-02-12T00:54:54.268Z,3.30
2023-02-12T00:57:41.210Z,3.50
2023-02-12T01:00:29.387Z,3.20
2023-02-12T01:03:17.440Z,3.37
2023-02-12T01:06:03.920Z,3.67
2023-02-12T01:08:52.621Z,3.53
2023-02-12T01:11:39.870Z,3.30
2023-02-12T01:14:26.916Z,3.13
2023-02-12T01:17:14.933Z,3.30
2023-02-12T01:20:07.201Z,3.00
2023-02-12T01:22:53.968Z,3.20
2023-02-12T01:25:40.591Z,3.90
2023-02-12T01:28:27.402Z,3.73
2023-02-12T01:31:16.482Z,3.23
2023-02-12T01:34:05.191Z,2.83
2023-02-12T01:36:53.252Z,3.20
2023-02-12T01:39:40.055Z,2.93
2023-02-12T01:42:26.593Z,3.37
2023-02-12T01:45:45.846Z,2.80
2023-02-12T01:48:38.396Z,2.93
2023-02-12T01:51:27.290Z,3.20
2023-02-12T01:54:16.221Z,2.90
2023-02-12T01:57:05.221Z,3.67
2023-02-12T01:59:54.600Z,2.67
2023-02-12T02:02:41.668Z,3.10
2023-02-12T02:05:34.592Z,2.60
2023-02-12T02:08:23.582Z,2.70
2023-02-12T02:11:24.823Z,2.80
2023-02-12T02:14:29.013Z,2.83
2023-02-12T02:17:31.550Z,3.10
2023-02-12T02:20:42.889Z,2.47
2023-02-12T02:23:48.879Z,2.67
2023-02-12T02:27:08.652Z,2.83
2023-02-12T02:30:26.000Z,3.00
2023-02-12T02:33:22.963Z,3.50
2023-02-12T02:36:26.211Z,3.37
2023-02-12T02:39:20.243Z,3.03
2023-02-12T02:42:12.311Z,3.70
2023-02-12T02:45:04.878Z,3.43
2023-02-12T02:47:59.590Z,3.03
2023-02-12T02:50:51.064Z,2.53
2023-02-12T02:53:43.502Z,4.03
2023-02-12T02:56:31.821Z,4.03
2023-02-12T02:59:22.896Z,3.57
2023-02-12T03:02:16.964Z,3.70
2023-02-12T03:05:10.869Z,3.30
2023-02-12T03:08:02.819Z,3.03
2023-02-12T03:10:55.148Z,3.43
2023-02-12T03:13:47.447Z,3.43
2023-02-12T03:16:37.964Z,3.17
2023-02-12T03:19:28.703Z,3.37
2023-02-12T03:22:19.453Z,3.63
2023-02-12T03:25:14.370Z,3.53
2023-02-12T03:28:08.129Z,4.27
2023-02-12T03:31:02.766Z,2.90
2023-02-12T03:34:00.265Z,3.90
2023-02-12T03:36:53.241Z,3.10
2023-02-12T03:39:50.865Z,3.23
2023-02-12T03:42:46.199Z,3.47
2023-02-12T03:45:48.044Z,3.27
2023-02-12T03:48:39.690Z,3.60
2023-02-12T03:51:30.309Z,3.07
2023-02-12T03:54:21.219Z,4.17
2023-02-12T03:57:13.382Z,2.87
2023-02-12T04:00:02.677Z,3.10
2023-02-12T04:03:01.196Z,3.00
2023-02-12T04:05:48.028Z,3.57
2023-02-12T04:08:34.967Z,2.70
2023-02-12T04:11:31.957Z,3.33
2023-02-12T04:14:28.553Z,4.03
2023-02-12T04:17:23.524Z,3.30
2023-02-12T04:20:18.166Z,2.63
2023-02-12T04:23:17.916Z,2.47
2023-02-12T04:26:13.838Z,2.70
2023-02-12T04:29:16.830Z,3.33
2023-02-12T04:32:12.960Z,3.17
2023-02-12T04:35:06.606Z,3.07
2023-02-12T04:37:57.501Z,3.57
2023-02-12T04:40:45.449Z,2.83
2023-02-12T04:43:36.471Z,3.97
2023-02-12T04:46:23.653Z,2.40
2023-02-12T04:49:15.788Z,2.93
2023-02-12T04:52:02.395Z,3.43
2023-02-12T04:54:49.205Z,3.20
2023-02-12T04:57:36.107Z,4.50
2023-02-12T05:00:23.344Z,2.73
2023-02-12T05:03:10.300Z,3.60
2023-02-12T05:06:04.081Z,3.20
2023-02-12T05:08:50.709Z,3.60
2023-02-12T05:11:37.332Z,3.47
2023-02-12T05:14:25.769Z,3.27
2023-02-12T05:17:12.418Z,3.10
2023-02-12T05:19:59.285Z,3.37
2023-02-12T05:22:47.427Z,3.23
2023-02-12T05:25:34.140Z,3.07
2023-02-12T05:28:21.024Z,3.20
2023-02-12T05:31:10.492Z,3.40
2023-02-12T05:33:57.369Z,3.40
2023-02-12T05:36:44.187Z,3.37
2023-02-12T05:39:32.612Z,3.30
2023-02-12T05:42:19.044Z,3.40
2023-02-12T05:45:06.700Z,2.70
2023-02-12T05:47:53.318Z,3.10
2023-02-12T05:50:40.108Z,2.90
2023-02-12T05:53:27.895Z,2.73
2023-02-12T05:56:18.478Z,3.07
2023-02-12T05:59:07.256Z,3.17
2023-02-12T06:01:53.975Z,2.97
2023-02-12T06:04:40.409Z,3.63
2023-02-12T06:07:27.173Z,2.93
2023-02-12T06:10:13.907Z,2.20
2023-02-12T06:13:01.942Z,2.50
2023-02-12T06:15:48.771Z,2.60
2023-02-12T06:18:37.264Z,3.37
2023-02-12T06:21:25.707Z,2.40
2023-02-12T06:24:13.525Z,3.50
2023-02-12T06:27:00.318Z,3.23
2023-02-12T06:29:48.491Z,2.80
2023-02-12T06:32:35.196Z,2.90
2023-02-12T06:35:21.964Z,2.73
2023-02-12T06:38:09.422Z,3.33
2023-02-12T06:40:56.157Z,2.80
2023-02-12T06:43:43.121Z,2.93
2023-02-12T06:46:31.617Z,2.47
2023-02-12T06:49:17.989Z,2.33
2023-02-12T06:52:04.860Z,2.90
2023-02-12T06:54:51.769Z,2.97
2023-02-12T06:57:38.739Z,2.80
2023-02-12T07:00:25.691Z,3.50
2023-02-12T07:03:14.284Z,2.90
2023-02-12T07:06:01.136Z,3.03
2023-02-12T07:08:47.817Z,2.47
2023-02-12T07:11:38.359Z,2.80
2023-02-12T07:14:25.282Z,2.40
2023-02-12T07:17:12.119Z,2.70
2023-02-12T07:20:00.274Z,2.93
2023-02-12T07:22:47.030Z,2.83
2023-02-12T07:25:33.897Z,3.07
2023-02-12T07:28:20.773Z,2.50
2023-02-12T07:31:09.010Z,2.30
2023-02-12T07:33:56.874Z,2.83
2023-02-12T07:36:44.983Z,2.30
2023-02-12T07:39:31.760Z,2.90
2023-02-12T07:42:19.144Z,3.40
2023-02-12T07:45:10.344Z,3.00
2023-02-12T07:47:56.917Z,2.67
2023-02-12T07:50:43.616Z,2.80
2023-02-12T07:53:31.768Z,3.57
2023-02-12T07:56:20.522Z,2.60
2023-02-12T07:59:09.134Z,3.13
2023-02-12T08:01:56.404Z,3.70
2023-02-12T08:04:42.940Z,2.73
2023-02-12T08:07:30.471Z,2.60
2023-02-12T08:10:22.361Z,3.07
2023-02-12T08:13:08.804Z,4.00
2023-02-12T08:16:01.472Z,3.00
2023-02-12T08:18:48.643Z,2.83
2023-02-12T08:21:35.629Z,4.03
2023-02-12T08:24:23.044Z,3.50
2023-02-12T08:27:11.043Z,4.47
2023-02-12T08:29:57.913Z,3.17
2023-02-12T08:32:45.279Z,3.17
2023-02-12T08:35:31.753Z,3.27
2023-02-12T08:38:18.399Z,3.37
2023-02-12T08:41:08.840Z,3.13
2023-02-12T08:43:58.833Z,3.63
2023-02-12T08:46:47.901Z,3.10
2023-02-12T08:49:34.702Z,3.23
2023-02-12T08:52:21.364Z,3.17
2023-02-12T08:55:08.902Z,2.77
2023-02-12T08:57:58.153Z,3.80
2023-02-12T09:00:46.071Z,3.33
2023-02-12T09:03:32.981Z,4.40
2023-02-12T09:06:21.897Z,3.37
2023-02-12T09:09:08.444Z,3.30
2023-02-12T09:11:55.149Z,3.20
2023-02-12T09:14:42.028Z,2.77
2023-02-12T09:17:30.645Z,3.87
2023-02-12T09:20:17.396Z,2.77
2023-02-12T09:23:04.520Z,3.63
2023-02-12T09:25:51.189Z,3.23
2023-02-12T09:28:38.559Z,3.60
2023-02-12T09:31:27.898Z,3.40
2023-02-12T09:34:16.078Z,2.50
2023-02-12T09:37:02.942Z,2.70
2023-02-12T09:39:51.270Z,3.10
2023-02-12T09:42:53.645Z,3.07
2023-02-12T09:45:45.197Z,2.87
2023-02-12T09:48:40.763Z,2.57
2023-02-12T09:51:30.473Z,2.63
2023-02-12T09:54:19.567Z,2.97
2023-02-12T09:57:14.445Z,2.50
2023-02-12T10:00:06.608Z,3.73
2023-02-12T10:02:55.410Z,2.83
2023-02-12T10:05:46.475Z,2.73
2023-02-12T10:08:46.554Z,3.13
2023-02-12T10:11:51.985Z,3.00
2023-02-12T10:14:59.717Z,2.87
2023-02-12T10:17:55.071Z,2.90
2023-02-12T10:20:53.196Z,3.20
2023-02-12T10:24:01.209Z,2.97
2023-02-12T10:26:50.332Z,4.00
2023-02-12T10:29:42.542Z,3.63
2023-02-12T10:32:32.027Z,2.83
2023-02-12T10:35:26.960Z,2.77
2023-02-12T10:38:18.795Z,4.27
2023-02-12T10:41:07.045Z,2.60
2023-02-12T10:43:54.046Z,2.83
2023-02-12T10:46:40.978Z,3.60
2023-02-12T10:49:28.024Z,3.17
2023-02-12T10:52:35.902Z,3.40
2023-02-12T10:55:27.967Z,3.23
2023-02-12T10:58:24.318Z,2.93
2023-02-12T11:01:18.336Z,2.63
2023-02-12T11:04:22.454Z,3.00
2023-02-12T11:07:10.865Z,2.63
2023-02-12T11:09:58.429Z,2.87
2023-02-12T11:12:48.412Z,3.03
2023-02-12T11:15:47.441Z,2.90
2023-02-12T11:18:36.698Z,2.47
2023-02-12T11:21:24.592Z,2.67
2023-02-12T11:24:31.915Z,3.13
2023-02-12T11:27:24.578Z,2.90
2023-02-12T11:30:20.350Z,2.60
2023-02-12T11:33:23.505Z,3.70
2023-02-12T11:36:25.157Z,2.83
2023-02-12T11:39:21.393Z,3.47
2023-02-12T11:42:16.716Z,3.63
2023-02-12T11:45:04.910Z,3.03
2023-02-12T11:47:52.924Z,3.50
2023-02-12T11:50:47.660Z,3.90
2023-02-12T11:53:37.642Z,3.47
2023-02-12T11:56:24.646Z,3.97
2023-02-12T11:59:19.252Z,4.07
2023-02-12T12:02:23.428Z,4.07
2023-02-12T12:05:15.773Z,3.53
2023-02-12T12:08:08.641Z,4.23
2023-02-12T12:10:59.769Z,4.10
2023-02-12T12:13:52.133Z,4.00
2023-02-12T12:17:02.450Z,4.00
2023-02-12T12:19:57.891Z,3.47
2023-02-12T12:22:51.716Z,3.03
2023-02-12T12:25:46.308Z,3.83
2023-02-12T12:28:37.398Z,3.50
2023-02-12T12:31:29.867Z,3.47
2023-02-12T12:34:19.258Z,3.40
2023-02-12T12:37:32.312Z,2.87
2023-02-12T12:40:42.326Z,3.00
2023-02-12T12:43:43.248Z,3.40
2023-02-12T12:46:48.565Z,2.83
2023-02-12T12:49:55.242Z,2.27
2023-02-12T12:52:58.136Z,2.40
2023-02-12T12:56:12.836Z,2.30
2023-02-12T12:59:26.115Z,2.47
2023-02-12T13:02:43.634Z,2.00
2023-02-12T13:05:48.649Z,2.27
2023-02-12T13:08:48.500Z,2.90
2023-02-12T13:11:43.397Z,2.27
2023-02-12T13:14:45.065Z,1.80
2023-02-12T13:17:39.620Z,1.93
2023-02-12T13:20:38.345Z,1.73
2023-02-12T13:23:35.892Z,1.73
2023-02-12T13:26:30.779Z,1.90
2023-02-12T13:29:22.543Z,1.73
2023-02-12T13:32:17.726Z,1.40
2023-02-12T13:35:08.101Z,1.50
2023-02-12T13:37:56.469Z,1.47
2023-02-12T13:40:43.396Z,1.60
2023-02-12T13:43:50.712Z,1.60
2023-02-12T13:46:51.835Z,1.60
2023-02-12T13:49:45.972Z,1.53
2023-02-12T13:52:42.276Z,1.40
2023-02-12T13:55:35.535Z,1.27
2023-02-12T13:58:48.538Z,1.30
2023-02-12T14:01:43.313Z,1.40
2023-02-12T14:04:33.038Z,1.57
2023-02-12T14:07:22.936Z,1.50
2023-02-12T14:10:20.773Z,1.30
2023-02-12T14:13:18.664Z,1.40
2023-02-12T14:16:36.174Z,1.20
2023-02-12T14:19:57.164Z,1.37
2023-02-12T14:23:34.058Z,1.30
2023-02-12T14:26:24.651Z,1.33
2023-02-12T14:29:21.136Z,1.60
2023-02-12T14:32:40.391Z,1.77
2023-02-12T14:35:34.208Z,1.80
2023-02-12T14:39:01.335Z,1.60
2023-02-12T14:41:50.302Z,1.80
2023-02-12T14:44:47.413Z,1.60
2023-02-12T14:47:55.344Z,1.70
2023-02-12T14:50:50.530Z,1.80
2023-02-12T14:53:40.537Z,1.60
2023-02-12T14:56:27.661Z,1.70
2023-02-12T14:59:22.577Z,2.03
2023-02-12T15:02:15.287Z,1.43
2023-02-12T15:05:05.390Z,2.50
2023-02-12T15:07:58.397Z,1.77
2023-02-12T15:10:51.050Z,2.10
2023-02-12T15:13:49.549Z,2.27
2023-02-12T15:16:46.530Z,2.40
2023-02-12T15:19:41.707Z,2.50
2023-02-12T15:22:32.470Z,2.50
2023-02-12T15:25:25.144Z,2.50
2023-02-12T15:28:20.278Z,1.83
2023-02-12T15:31:11.037Z,2.20
2023-02-12T15:34:01.060Z,2.97
2023-02-12T15:36:47.882Z,2.50
2023-02-12T15:39:43.547Z,2.80
2023-02-12T15:42:32.657Z,2.77
2023-02-12T15:45:22.288Z,2.93
2023-02-12T15:48:14.664Z,2.87
2023-02-12T15:51:10.676Z,2.53
2023-02-12T15:53:59.638Z,2.93
2023-02-12T15:56:46.444Z,2.97
2023-02-12T15:59:33.027Z,3.10
2023-02-12T16:02:22.751Z,2.80
2023-02-12T16:05:15.873Z,3.33
2023-02-12T16:08:04.434Z,2.60
2023-02-12T16:10:54.438Z,3.03
2023-02-12T16:13:45.422Z,2.90
2023-02-12T16:16:40.796Z,3.13
2023-02-12T16:19:29.420Z,3.27
2023-02-12T16:22:19.629Z,3.23
2023-02-12T16:25:16.719Z,2.90
2023-02-12T16:28:07.036Z,3.10
2023-02-12T16:30:53.876Z,2.87
2023-02-12T16:33:48.729Z,2.90
2023-02-12T16:36:39.190Z,2.83
2023-02-12T16:40:14.227Z,3.00
2023-02-12T16:43:26.543Z,2.60
2023-02-12T16:46:15.129Z,2.67
2023-02-12T16:49:03.409Z,2.67
2023-02-12T16:51:51.082Z,3.00
2023-02-12T16:54:38.039Z,2.90
2023-02-12T16:57:24.900Z,2.50
2023-02-12T17:00:17.639Z,3.30
2023-02-12T17:03:04.272Z,2.90
2023-02-12T17:05:52.495Z,2.90
2023-02-12T17:08:39.396Z,2.83
2023-02-12T17:11:27.162Z,3.17
2023-02-12T17:14:16.752Z,3.03
2023-02-12T17:17:07.841Z,2.70
2023-02-12T17:19:54.529Z,2.37
2023-02-12T17:22:46.335Z,2.93
2023-02-12T17:25:34.143Z,3.37
2023-02-12T17:28:21.204Z,3.37
2023-02-12T17:31:08.170Z,2.83
2023-02-12T17:33:56.456Z,2.90
2023-02-12T17:36:43.611Z,3.10
2023-02-12T17:39:30.746Z,3.03
2023-02-12T17:42:17.512Z,3.03
2023-02-12T17:45:04.428Z,3.30
2023-02-12T17:47:50.864Z,3.20
2023-02-12T17:50:40.484Z,2.97
2023-02-12T17:53:27.381Z,3.00
2023-02-12T17:56:17.573Z,3.07
2023-02-12T17:59:04.410Z,3.07
2023-02-12T18:01:51.188Z,3.33
2023-02-12T18:04:38.008Z,3.03
2023-02-12T18:07:26.277Z,3.10
2023-02-12T18:10:13.397Z,3.37
2023-02-12T18:13:00.013Z,2.87
2023-02-12T18:15:46.892Z,3.40
2023-02-12T18:18:33.640Z,3.00
2023-02-12T18:21:20.603Z,3.13
2023-02-12T18:24:09.567Z,3.03
2023-02-12T18:26:56.306Z,2.77
2023-02-12T18:29:43.134Z,2.77
2023-02-12T18:32:30.015Z,3.03
2023-02-12T18:35:16.872Z,2.80
2023-02-12T18:38:03.823Z,3.17
2023-02-12T18:40:51.897Z,3.17
2023-02-12T18:43:39.064Z,2.90
2023-02-12T18:46:27.276Z,3.43
2023-02-12T18:49:14.414Z,3.40
2023-02-12T18:52:02.100Z,3.40
2023-02-12T18:54:48.496Z,3.23
2023-02-12T18:57:36.625Z,3.07
2023-02-12T19:00:23.592Z,3.10
2023-02-12T19:03:10.280Z,3.47
2023-02-12T19:06:03.950Z,3.10
2023-02-12T19:08:50.557Z,3.20
2023-02-12T19:11:37.329Z,3.20
2023-02-12T19:14:26.421Z,3.00
2023-02-12T19:17:13.124Z,3.80
2023-02-12T19:19:59.847Z,3.13
2023-02-12T19:22:47.290Z,3.40
2023-02-12T19:25:36.023Z,3.20
2023-02-12T19:28:22.498Z,3.53
2023-02-12T19:31:16.429Z,4.30
2023-02-12T19:34:05.455Z,3.80
2023-02-12T19:36:52.584Z,3.60
2023-02-12T19:39:39.650Z,3.77
2023-02-12T19:42:26.491Z,3.30
2023-02-12T19:45:13.135Z,2.70
2023-02-12T19:48:04.895Z,2.83
2023-02-12T19:50:52.002Z,2.80
2023-02-12T19:53:38.948Z,3.30
2023-02-12T19:56:26.121Z,3.17
2023-02-12T19:59:14.558Z,2.70
2023-02-12T20:02:02.626Z,2.87
2023-02-12T20:04:50.517Z,2.87
2023-02-12T20:07:37.107Z,2.67
2023-02-12T20:10:24.025Z,3.30
2023-02-12T20:13:10.757Z,2.93
2023-02-12T20:15:57.410Z,3.33
2023-02-12T20:18:44.567Z,4.40
2023-02-12T20:21:33.078Z,4.43
2023-02-12T20:24:19.906Z,5.27
2023-02-12T20:27:06.797Z,5.97
2023-02-12T20:29:53.864Z,5.60
2023-02-12T20:32:41.940Z,4.50
2023-02-12T20:35:29.843Z,4.73
2023-02-12T20:38:19.291Z,5.20
2023-02-12T20:41:08.104Z,4.53
2023-02-12T20:43:55.577Z,4.80
2023-02-12T20:46:42.668Z,4.70
2023-02-12T20:49:29.408Z,5.37
2023-02-12T20:52:16.420Z,4.63
2023-02-12T20:55:04.873Z,4.63
2023-02-12T20:57:51.798Z,4.40
2023-02-12T21:00:38.736Z,5.10
2023-02-12T21:06:13.454Z,4.60
2023-02-12T21:09:00.474Z,4.80
2023-02-12T21:11:49.716Z,4.70
2023-02-12T21:14:41.177Z,4.50
2023-02-12T21:17:28.706Z,5.03
2023-02-12T21:20:15.229Z,5.20
2023-02-12T21:23:02.104Z,5.27
2023-02-12T21:25:48.922Z,5.70
2023-02-12T21:28:37.650Z,5.90
2023-02-12T21:31:26.395Z,5.47
2023-02-12T21:34:15.512Z,6.10
2023-02-12T21:37:02.780Z,5.73
2023-02-12T21:39:49.135Z,6.47
2023-02-12T21:42:35.876Z,6.03
2023-02-12T21:45:23.997Z,5.90
2023-02-12T21:48:10.690Z,6.67
2023-02-12T21:50:58.271Z,6.03
2023-02-12T21:53:44.969Z,6.63
2023-02-12T21:56:32.015Z,6.90
2023-02-12T21:59:26.729Z,6.70
2023-02-12T22:02:14.738Z,6.63
2023-02-12T22:05:01.382Z,6.50
2023-02-12T22:07:49.970Z,7.03
2023-02-12T22:10:37.320Z,6.73
2023-02-12T22:13:24.204Z,6.50
2023-02-12T22:16:12.082Z,6.63
2023-02-12T22:19:02.362Z,6.57
2023-02-12T22:21:51.586Z,7.80
2023-02-12T22:24:38.201Z,7.80
2023-02-12T22:27:24.705Z,6.90
2023-02-12T22:30:12.275Z,6.87
2023-02-12T22:32:58.671Z,7.70
2023-02-12T22:35:46.945Z,7.97
2023-02-12T22:38:34.593Z,9.07
2023-02-12T22:41:21.771Z,8.13
2023-02-12T22:44:08.623Z,8.30
2023-02-12T22:46:55.330Z,8.83
2023-02-12T22:49:42.230Z,9.93
2023-02-12T22:52:32.992Z,9.47
2023-02-12T22:55:19.772Z,9.07
2023-02-12T22:58:06.524Z,9.73
2023-02-12T23:00:53.258Z,8.47
2023-02-12T23:03:40.521Z,8.80
2023-02-12T23:06:30.233Z,8.87
2023-02-12T23:09:19.871Z,9.20
2023-02-12T23:12:07.990Z,8.70
2023-02-12T23:14:57.615Z,8.60
2023-02-12T23:17:44.468Z,6.73
2023-02-12T23:20:31.220Z,7.67
2023-02-12T23:23:18.400Z,6.40
2023-02-12T23:26:07.034Z,6.43
2023-02-12T23:28:53.885Z,4.40
2023-02-12T23:31:40.786Z,4.60
2023-02-12T23:34:27.412Z,4.97
2023-02-12T23:37:14.049Z,4.60
2023-02-12T23:40:00.800Z,4.40
2023-02-12T23:42:48.921Z,3.73
2023-02-12T23:45:35.964Z,3.90
2023-02-12T23:48:22.550Z,3.27
2023-02-12T23:51:09.380Z,3.73
2023-02-12T23:53:57.509Z,3.40
2023-02-12T23:56:44.656Z,3.20
2023-02-12T23:59:32.915Z,2.70
